X  Sluiten METAR luchtvaart weer gegevens      EHGG Eelde Airport
Temperatuur
6°C Temperatuur
3°C Dauwpunt
81% Vochtigheid



Wind
32 KM/U
20 MPH
9 M/S
17 KTS



200°
ZZW
Huidig weer

Grotendeels bewolkt Grotendeels bewolkt
Luchtdruk 986.79 (hPa) - 29.14 (inHg)
Zicht 6 (mijl) - 9.7 (km)
Vliegveld
Vliegveld code EHGG

Locatie : Eelde Airport
Afstand: 32 (km)

Metar:
EHGG 230925Z AUTO 20017KT 170V230 9999 BKN030/// 06/03 Q0987 NOSIG

Tijd: 23-02-2024 10:25 CET